Weather at Akhisar Airport

Public forecast

Using degrees Celsius for public forecast. Weather courtesy of forecast.io.

Current aviation weather report (METAR) for Akhisar Airport

Retrieved 2022/01/28 05:50 UTC (40 minutes ago):

LTBT 280550Z VRB01KT 3800 BR FEW035 BKN100 M03/M04 Q1024 RMK RWY13 02001KT

Closest aviation forecast (TAF) to Akhisar Airport

Closest forecast is Adnan Menderes International Airport, 44.4 nm (82.2 km) SW. Retrieved 2022/01/28 06:03 UTC (27 minutes ago):

TAF LTBJ 280440Z 2806/2906 VRB02KT 9999 SCT030